Time;durP1;ratioP1;P1;durP2;ratioP2;P2;SDS_P1;SDS_P2;PMS_P1;PMS_P2;Temp;Humidity;BMP_temperature;BMP_pressure;BME280_temperature;BME280_humidity;BME280_pressure;Samples;Min_cycle;Max_cycle;Signal;HPM_P1;HPM_P2
2020/12/18 00:00:12;;;;;;;39.17;25.85;;;;;;;2.59;100.00;96933.84;1028311;28;20033;-77
2020/12/18 00:00:44;;;;;;;38.75;25.15;;;;;;;2.63;100.00;96932.72;1028198;28;20027;-77
2020/12/18 00:01:25;;;;;;;36.78;23.85;;;;;;;2.70;100.00;96938.34;1028133;28;20022;-77
2020/12/18 00:01:56;;;;;;;35.88;23.33;;;;;;;2.73;100.00;96931.13;1032396;28;20025;-78
2020/12/18 00:02:26;;;;;;;34.55;21.73;;;;;;;2.83;100.00;96940.06;1032273;28;20033;-77
2020/12/18 00:02:57;;;;;;;34.85;22.92;;;;;;;2.78;100.00;96915.09;1032135;28;20030;-76
2020/12/18 00:03:28;;;;;;;37.20;24.02;;;;;;;2.88;100.00;96934.50;1028373;28;20026;-77
2020/12/18 00:03:59;;;;;;;35.30;23.38;;;;;;;2.81;100.00;96918.34;1024216;28;20097;-77
2020/12/18 00:04:30;;;;;;;37.15;24.38;;;;;;;2.74;100.00;96897.91;1024375;29;20193;-78
2020/12/18 00:05:01;;;;;;;36.55;23.17;;;;;;;2.80;100.00;96935.03;1031956;28;20023;-76
2020/12/18 00:05:32;;;;;;;34.67;23.25;;;;;;;2.74;100.00;96927.56;1021109;29;20091;-78
2020/12/18 00:06:04;;;;;;;34.35;23.13;;;;;;;2.69;100.00;96920.97;1028354;28;20034;-77
2020/12/18 00:06:35;;;;;;;32.70;23.42;;;;;;;2.71;100.00;96935.63;1028438;28;20388;-77
2020/12/18 00:07:08;;;;;;;34.63;23.63;;;;;;;2.59;100.00;96936.47;1024078;29;20534;-78
2020/12/18 00:07:39;;;;;;;34.38;22.58;;;;;;;2.52;100.00;96908.97;1032217;28;20022;-77
2020/12/18 00:08:09;;;;;;;31.75;21.30;;;;;;;2.57;100.00;96922.63;1024284;29;20362;-78
2020/12/18 00:08:40;;;;;;;34.63;23.77;;;;;;;2.64;100.00;96935.19;1032436;28;20089;-77
2020/12/18 00:09:11;;;;;;;33.58;22.38;;;;;;;2.41;100.00;96907.91;1028256;28;20138;-77
2020/12/18 00:09:42;;;;;;;35.13;22.85;;;;;;;2.45;100.00;96914.59;1032436;28;20030;-78
2020/12/18 00:10:13;;;;;;;36.25;22.92;;;;;;;2.54;100.00;96938.53;1028299;28;20026;-76
2020/12/18 00:10:44;;;;;;;34.50;21.85;;;;;;;2.39;100.00;96915.03;1028175;28;20502;-76
2020/12/18 00:11:23;;;;;;;32.92;22.30;;;;;;;2.58;100.00;96934.81;1032028;28;20482;-77
2020/12/18 00:11:54;;;;;;;34.50;23.08;;;;;;;2.50;100.00;96934.47;1027782;28;20026;-77
2020/12/18 00:12:24;;;;;;;30.48;21.08;;;;;;;2.48;100.00;96931.09;1028247;28;20027;-78
2020/12/18 00:12:55;;;;;;;34.58;22.40;;;;;;;2.45;100.00;96934.75;1024453;28;20035;-77
2020/12/18 00:13:26;;;;;;;38.85;24.38;;;;;;;2.36;100.00;96920.47;1028425;28;20030;-77
2020/12/18 00:13:57;;;;;;;39.15;24.42;;;;;;;2.49;100.00;96927.53;1024270;29;20027;-78
2020/12/18 00:14:27;;;;;;;41.60;25.67;;;;;;;2.50;100.00;96937.06;1032286;28;20026;-77
2020/12/18 00:14:58;;;;;;;42.33;24.77;;;;;;;2.50;100.00;96927.41;1024223;28;20057;-77
2020/12/18 00:15:29;;;;;;;47.05;25.88;;;;;;;2.53;100.00;96932.47;1032496;28;20019;-77
2020/12/18 00:15:59;;;;;;;44.72;26.08;;;;;;;2.48;100.00;96918.81;1036328;28;20580;-78
2020/12/18 00:16:32;;;;;;;51.33;27.80;;;;;;;2.59;100.00;96925.97;1028413;28;20018;-78
2020/12/18 00:17:04;;;;;;;48.58;26.73;;;;;;;2.64;100.00;96929.13;1032324;28;20030;-77
2020/12/18 00:17:35;;;;;;;47.85;26.42;;;;;;;2.50;100.00;96916.94;1036376;28;20429;-77
2020/12/18 00:18:05;;;;;;;47.33;26.63;;;;;;;2.58;100.00;96929.56;1028521;28;20021;-77
2020/12/18 00:18:36;;;;;;;50.17;27.70;;;;;;;2.50;100.00;96931.84;1028357;28;20391;-78
2020/12/18 00:19:07;;;;;;;48.15;27.88;;;;;;;2.45;100.00;96932.97;1024299;29;20027;-77
2020/12/18 00:19:38;;;;;;;48.17;27.75;;;;;;;2.47;100.00;96937.28;1024367;29;20125;-77
2020/12/18 00:20:08;;;;;;;48.72;27.48;;;;;;;2.35;100.00;96933.66;1028637;28;20022;-78
2020/12/18 00:20:39;;;;;;;44.25;26.77;;;;;;;2.40;100.00;96936.84;1024375;28;20027;-77
2020/12/18 00:21:09;;;;;;;40.13;25.35;;;;;;;2.37;100.00;96937.03;1032044;28;20027;-77
2020/12/18 00:21:40;;;;;;;40.55;24.63;;;;;;;2.36;100.00;96938.81;1024544;28;20110;-77
2020/12/18 00:22:11;;;;;;;41.13;25.58;;;;;;;2.39;100.00;96930.75;1028282;28;20023;-78
2020/12/18 00:22:41;;;;;;;40.53;24.05;;;;;;;2.34;100.00;96935.47;1028252;28;20030;-77
2020/12/18 00:23:12;;;;;;;42.97;25.05;;;;;;;2.32;100.00;96934.72;1032029;28;20022;-76
2020/12/18 00:23:43;;;;;;;39.70;26.30;;;;;;;2.29;100.00;96934.91;1024136;29;20019;-77
2020/12/18 00:24:13;;;;;;;37.75;24.70;;;;;;;2.33;100.00;96939.00;1032208;28;20074;-77
2020/12/18 00:24:44;;;;;;;36.25;22.50;;;;;;;2.37;100.00;96927.41;1020178;29;20035;-77
2020/12/18 00:25:15;;;;;;;37.83;23.70;;;;;;;2.31;100.00;96921.72;1028099;28;20030;-77
2020/12/18 00:25:47;;;;;;;35.88;22.63;;;;;;;2.35;100.00;96933.66;1028368;28;20093;-77
2020/12/18 00:26:18;;;;;;;35.58;23.33;;;;;;;2.37;100.00;96932.66;1020439;28;20058;-77
2020/12/18 00:26:49;;;;;;;33.22;23.33;;;;;;;2.35;100.00;96934.53;1024518;28;20058;-77
2020/12/18 00:27:19;;;;;;;34.75;22.73;;;;;;;2.41;100.00;96928.03;1024175;29;20027;-77
2020/12/18 00:27:50;;;;;;;35.05;24.05;;;;;;;2.29;100.00;96919.19;1028514;28;20026;-77
2020/12/18 00:28:21;;;;;;;35.28;23.15;;;;;;;2.38;100.00;96930.84;1028351;28;20383;-78
2020/12/18 00:28:51;;;;;;;34.88;23.08;;;;;;;2.21;100.00;96916.22;1024440;29;20050;-77
2020/12/18 00:29:22;;;;;;;36.03;23.05;;;;;;;2.32;100.00;96928.66;1024243;29;20027;-77
2020/12/18 00:29:52;;;;;;;34.70;23.42;;;;;;;2.26;100.00;96929.88;1028164;28;20027;-77
2020/12/18 00:30:23;;;;;;;36.28;22.17;;;;;;;2.27;100.00;96931.56;1024274;28;20388;-77
2020/12/18 00:30:54;;;;;;;33.78;22.35;;;;;;;2.19;100.00;96926.81;1028250;28;20398;-77
2020/12/18 00:31:26;;;;;;;33.83;23.55;;;;;;;2.17;100.00;96928.69;1024383;28;20020;-77
2020/12/18 00:31:58;;;;;;;36.03;23.25;;;;;;;2.04;100.00;96901.63;1032512;28;20014;-78
2020/12/18 00:32:28;;;;;;;34.42;22.17;;;;;;;2.06;100.00;96902.38;1032340;28;20019;-77
2020/12/18 00:32:59;;;;;;;35.58;23.50;;;;;;;2.21;100.00;96931.94;1032277;28;20394;-77
2020/12/18 00:33:30;;;;;;;36.60;23.58;;;;;;;2.16;100.00;96924.41;1032318;28;20022;-77
2020/12/18 00:34:01;;;;;;;36.47;23.30;;;;;;;2.22;100.00;96923.16;1031929;28;20022;-78
2020/12/18 00:34:31;;;;;;;36.13;23.42;;;;;;;2.30;100.00;96923.50;1027724;28;20118;-77
2020/12/18 00:35:04;;;;;;;37.67;23.42;;;;;;;2.21;100.00;96924.94;1035845;28;20030;-76
2020/12/18 00:35:34;;;;;;;36.50;23.27;;;;;;;2.17;100.00;96925.25;1028241;28;20038;-77
2020/12/18 00:36:05;;;;;;;37.75;25.35;;;;;;;2.21;100.00;96926.72;1028368;28;20027;-78
2020/12/18 00:36:36;;;;;;;35.38;22.70;;;;;;;2.21;100.00;96913.59;1024106;28;20026;-78
2020/12/18 00:37:06;;;;;;;35.95;23.63;;;;;;;2.21;100.00;96926.72;1027855;28;20039;-76
2020/12/18 00:37:38;;;;;;;36.83;23.05;;;;;;;2.14;100.00;96917.56;1028110;28;20364;-77
2020/12/18 00:38:09;;;;;;;40.65;23.98;;;;;;;2.16;100.00;96919.16;1028070;28;20025;-77
2020/12/18 00:38:40;;;;;;;36.70;24.08;;;;;;;2.18;100.00;96926.94;1028351;28;20463;-78
2020/12/18 00:39:11;;;;;;;37.72;23.42;;;;;;;2.26;100.00;96925.50;1027910;28;20034;-76
2020/12/18 00:39:41;;;;;;;37.00;23.45;;;;;;;2.30;100.00;96925.28;1036161;28;20029;-77
2020/12/18 00:40:12;;;;;;;35.58;23.23;;;;;;;2.36;100.00;96917.00;1024167;28;20023;-77
2020/12/18 00:40:45;;;;;;;36.00;22.75;;;;;;;2.22;100.00;96891.72;1036096;28;20030;-76
2020/12/18 00:41:16;;;;;;;38.38;23.73;;;;;;;2.33;100.00;96927.69;1023969;29;20037;-77
2020/12/18 00:41:53;;;;;;;38.33;23.63;;;;;;;2.35;100.00;96924.06;1036157;28;20022;-77
2020/12/18 00:42:24;;;;;;;37.33;23.17;;;;;;;2.30;100.00;96915.66;1024093;29;20114;-78
2020/12/18 00:42:56;;;;;;;36.28;22.42;;;;;;;2.34;100.00;96932.84;1032023;28;20023;-76
2020/12/18 00:43:30;;;;;;;35.03;22.70;;;;;;;2.20;100.00;96906.69;1036037;28;20026;-77
2020/12/18 00:44:01;;;;;;;32.55;22.38;;;;;;;2.26;100.00;96930.72;1032078;28;20018;-77
2020/12/18 00:44:32;;;;;;;34.03;22.65;;;;;;;2.25;100.00;96928.22;1036142;28;20397;-77
2020/12/18 00:45:03;;;;;;;36.35;22.23;;;;;;;2.20;100.00;96909.31;1023855;28;20027;-76
2020/12/18 00:45:34;;;;;;;34.08;22.60;;;;;;;2.23;100.00;96924.81;1028025;28;20046;-78
2020/12/18 00:46:05;;;;;;;36.05;22.63;;;;;;;2.22;100.00;96915.31;1024229;29;20030;-78
2020/12/18 00:46:36;;;;;;;32.00;21.92;;;;;;;2.16;100.00;96915.69;1028284;28;20118;-77
2020/12/18 00:47:06;;;;;;;30.40;21.25;;;;;;;2.19;100.00;96924.19;1028006;28;20098;-76
2020/12/18 00:47:39;;;;;;;31.15;21.80;;;;;;;2.13;100.00;96901.03;1028359;28;20081;-78
2020/12/18 00:48:10;;;;;;;33.13;22.88;;;;;;;2.12;100.00;96896.72;1028290;28;20023;-78
2020/12/18 00:48:41;;;;;;;34.28;22.95;;;;;;;2.03;100.00;96892.91;1036264;28;20112;-77
2020/12/18 00:49:12;;;;;;;31.85;21.25;;;;;;;2.17;100.00;96918.22;1027862;28;20077;-76
2020/12/18 00:49:43;;;;;;;35.95;23.00;;;;;;;2.17;100.00;96906.91;1032218;28;20025;-78
2020/12/18 00:50:14;;;;;;;36.55;23.30;;;;;;;2.23;100.00;96912.59;1024340;29;20027;-78
2020/12/18 00:50:44;;;;;;;33.97;22.33;;;;;;;2.11;100.00;96899.41;1036229;28;20022;-77
2020/12/18 00:51:16;;;;;;;39.03;23.65;;;;;;;1.80;100.00;96855.13;1020147;29;20377;-77
2020/12/18 00:51:51;;;;;;;32.20;22.02;;;;;;;1.93;100.00;96873.47;1032320;28;20018;-77
2020/12/18 00:52:24;;;;;;;32.70;22.15;;;;;;;2.12;100.00;96912.44;1028301;28;20179;-77
2020/12/18 00:52:56;;;;;;;31.88;21.50;;;;;;;2.23;100.00;96915.19;1028200;28;20094;-77
2020/12/18 00:53:27;;;;;;;35.88;21.85;;;;;;;2.12;100.00;96898.50;1032104;28;20065;-77
2020/12/18 00:53:58;;;;;;;30.75;21.38;;;;;;;2.24;100.00;96921.28;1028231;28;20034;-78
2020/12/18 00:54:29;;;;;;;33.88;22.58;;;;;;;2.12;100.00;96894.09;1028072;28;20121;-77
2020/12/18 00:54:59;;;;;;;33.15;22.17;;;;;;;2.18;100.00;96914.66;1032190;28;20581;-77
2020/12/18 00:55:31;;;;;;;35.33;21.83;;;;;;;2.21;100.00;96911.84;1028195;28;20579;-77
2020/12/18 00:56:06;;;;;;;30.73;21.00;;;;;;;2.20;100.00;96914.56;1020320;29;20042;-78
2020/12/18 00:56:43;;;;;;;32.72;21.27;;;;;;;2.14;100.00;96915.78;1024203;28;20132;-77
2020/12/18 00:57:14;;;;;;;31.85;20.83;;;;;;;2.00;100.00;96897.50;1020055;29;20032;-77
2020/12/18 00:57:44;;;;;;;30.90;20.95;;;;;;;2.00;100.00;96892.25;1028162;28;20109;-77
2020/12/18 00:58:15;;;;;;;31.13;21.33;;;;;;;2.07;100.00;96915.38;1024246;28;20566;-77
2020/12/18 00:58:47;;;;;;;30.27;19.65;;;;;;;2.07;100.00;96910.13;1028053;28;20019;-77
2020/12/18 00:59:18;;;;;;;29.20;21.08;;;;;;;2.08;100.00;96911.78;1028044;28;20030;-77
2020/12/18 00:59:49;;;;;;;30.98;21.65;;;;;;;2.01;100.00;96899.19;1024333;29;20023;-78
2020/12/18 01:00:20;;;;;;;32.08;21.60;;;;;;;1.98;100.00;96900.22;1028226;28;20022;-78
2020/12/18 01:00:50;;;;;;;32.22;21.08;;;;;;;1.99;100.00;96909.78;1027882;28;20022;-76
2020/12/18 01:01:21;;;;;;;32.65;21.90;;;;;;;2.08;100.00;96911.78;1028103;28;20031;-78
2020/12/18 01:02:04;;;;;;;30.33;19.95;;;;;;;2.00;100.00;96882.66;1020347;29;20127;-78
2020/12/18 01:02:35;;;;;;;28.55;19.25;;;;;;;2.11;100.00;96891.56;1032179;28;20510;-77
2020/12/18 01:03:06;;;;;;;31.20;19.50;;;;;;;2.13;100.00;96897.56;1036471;28;20105;-78
2020/12/18 01:03:37;;;;;;;28.98;19.45;;;;;;;2.07;100.00;96890.94;1024338;28;20031;-78
2020/12/18 01:04:08;;;;;;;27.60;19.38;;;;;;;2.23;100.00;96917.81;1028550;28;20034;-76
2020/12/18 01:04:39;;;;;;;30.58;20.58;;;;;;;2.18;100.00;96921.69;1028975;28;20027;-78
2020/12/18 01:05:10;;;;;;;30.98;21.15;;;;;;;2.07;100.00;96910.13;1020495;29;20563;-76
2020/12/18 01:05:41;;;;;;;29.30;19.35;;;;;;;2.15;100.00;96919.25;1024066;29;20027;-78
2020/12/18 01:06:12;;;;;;;30.65;21.15;;;;;;;2.11;100.00;96909.91;1020290;29;20098;-77
2020/12/18 01:06:42;;;;;;;30.85;20.48;;;;;;;2.12;100.00;96927.31;1019940;29;20110;-76
2020/12/18 01:07:13;;;;;;;29.48;20.25;;;;;;;1.92;100.00;96905.88;1023973;29;20041;-76
2020/12/18 01:07:44;;;;;;;28.88;20.42;;;;;;;2.05;100.00;96922.47;1020378;29;20023;-78
2020/12/18 01:08:15;;;;;;;32.17;20.83;;;;;;;2.04;100.00;96935.69;1024064;29;20143;-77
2020/12/18 01:08:46;;;;;;;28.05;20.70;;;;;;;2.16;100.00;96931.41;1032047;28;20017;-76
2020/12/18 01:09:16;;;;;;;26.25;18.98;;;;;;;2.13;100.00;96923.78;1023852;29;20023;-77
2020/12/18 01:09:47;;;;;;;30.45;20.80;;;;;;;2.04;100.00;96910.31;1036077;28;20022;-77
2020/12/18 01:10:18;;;;;;;27.75;18.95;;;;;;;2.03;100.00;96918.28;1024015;28;20071;-77
2020/12/18 01:10:50;;;;;;;26.48;19.27;;;;;;;1.97;100.00;96919.50;1031899;28;20054;-76
2020/12/18 01:11:21;;;;;;;28.92;20.15;;;;;;;2.05;100.00;96930.31;1019867;28;20377;-76
2020/12/18 01:11:52;;;;;;;27.08;18.77;;;;;;;1.99;100.00;96925.50;1031480;28;20157;-76
2020/12/18 01:12:23;;;;;;;27.27;19.10;;;;;;;1.93;100.00;96927.66;1035969;28;20026;-77
2020/12/18 01:12:54;;;;;;;29.30;19.20;;;;;;;1.87;100.00;96923.66;1027973;28;20472;-76
2020/12/18 01:13:25;;;;;;;30.08;19.77;;;;;;;1.89;100.00;96937.50;1031975;28;20394;-78
2020/12/18 01:13:56;;;;;;;32.70;20.27;;;;;;;1.92;100.00;96931.22;1023891;28;20138;-77
2020/12/18 01:14:27;;;;;;;25.60;19.50;;;;;;;1.96;100.00;96933.53;1031947;28;20027;-77
2020/12/18 01:14:57;;;;;;;30.20;20.13;;;;;;;2.02;100.00;96933.16;1023819;28;20499;-76
2020/12/18 01:15:28;;;;;;;28.48;19.65;;;;;;;1.97;100.00;96916.91;1031982;28;20030;-77
2020/12/18 01:16:00;;;;;;;27.27;19.48;;;;;;;1.85;100.00;96907.22;1024561;28;20078;-77
2020/12/18 01:16:31;;;;;;;28.13;19.92;;;;;;;2.05;100.00;96932.94;1027981;28;20031;-77
2020/12/18 01:17:01;;;;;;;26.95;19.73;;;;;;;1.86;100.00;96901.00;1023815;29;20023;-76
2020/12/18 01:17:32;;;;;;;24.70;17.80;;;;;;;2.09;100.00;96933.59;1027892;28;20439;-77
2020/12/18 01:18:03;;;;;;;26.38;18.63;;;;;;;1.83;100.00;96877.63;1032046;28;20100;-78
2020/12/18 01:18:34;;;;;;;27.23;19.27;;;;;;;2.06;100.00;96932.00;1024155;29;20027;-77
2020/12/18 01:19:05;;;;;;;26.00;18.60;;;;;;;2.09;100.00;96920.50;1031993;28;20027;-77
2020/12/18 01:19:37;;;;;;;27.55;19.67;;;;;;;1.62;100.00;96849.28;1020083;28;20032;-77
2020/12/18 01:20:07;;;;;;;26.50;19.33;;;;;;;2.06;100.00;96918.09;1027977;28;20395;-77
2020/12/18 01:20:38;;;;;;;27.90;19.30;;;;;;;2.12;100.00;96922.06;1023887;29;20027;-77
2020/12/18 01:21:09;;;;;;;25.60;17.48;;;;;;;2.03;100.00;96908.63;1035828;28;20021;-76
2020/12/18 01:21:40;;;;;;;25.88;17.80;;;;;;;2.07;100.00;96920.59;1036225;28;20552;-77
2020/12/18 01:22:11;;;;;;;26.17;18.10;;;;;;;2.07;100.00;96915.38;1019934;28;20030;-77
2020/12/18 01:22:42;;;;;;;26.00;18.25;;;;;;;1.90;100.00;96899.91;1031963;28;20109;-77
2020/12/18 01:23:12;;;;;;;26.90;19.42;;;;;;;1.96;100.00;96912.59;1031809;28;20116;-76
2020/12/18 01:23:43;;;;;;;26.27;19.13;;;;;;;2.00;100.00;96914.09;1027905;28;20051;-76
2020/12/18 01:24:14;;;;;;;28.67;20.20;;;;;;;2.10;100.00;96918.72;1028006;28;20503;-77
2020/12/18 01:24:45;;;;;;;26.85;18.73;;;;;;;2.10;100.00;96923.97;1031979;28;20130;-77
2020/12/18 01:25:16;;;;;;;26.63;19.23;;;;;;;2.08;100.00;96917.03;1019952;29;20031;-77
2020/12/18 01:25:47;;;;;;;23.77;17.50;;;;;;;2.23;100.00;96930.94;1027956;28;20085;-78
2020/12/18 01:26:18;;;;;;;26.48;18.75;;;;;;;2.18;100.00;96917.28;1024064;29;20074;-77
2020/12/18 01:26:49;;;;;;;26.58;17.88;;;;;;;2.23;100.00;96920.44;1023911;28;20029;-76
2020/12/18 01:27:20;;;;;;;24.65;18.30;;;;;;;2.22;100.00;96929.22;1019988;29;20028;-78
2020/12/18 01:27:50;;;;;;;24.55;18.45;;;;;;;2.06;100.00;96899.75;1024146;28;20353;-77
2020/12/18 01:28:21;;;;;;;26.83;18.70;;;;;;;2.01;100.00;96899.19;1023978;29;20089;-77
2020/12/18 01:28:52;;;;;;;25.25;18.55;;;;;;;2.02;100.00;96893.88;1024147;28;20023;-78
2020/12/18 01:29:23;;;;;;;24.77;17.85;;;;;;;2.12;100.00;96916.84;1023866;28;20031;-78
2020/12/18 01:29:54;;;;;;;26.08;18.55;;;;;;;2.21;100.00;96926.72;1027755;28;20033;-77
2020/12/18 01:30:24;;;;;;;28.20;19.00;;;;;;;2.09;100.00;96915.28;1027879;28;20069;-77
2020/12/18 01:30:56;;;;;;;25.33;17.58;;;;;;;2.11;100.00;96909.91;1027861;28;20058;-76
2020/12/18 01:31:27;;;;;;;25.17;18.60;;;;;;;2.23;100.00;96919.59;1027860;28;20023;-77
2020/12/18 01:31:57;;;;;;;26.60;19.48;;;;;;;2.25;100.00;96922.97;1016047;29;20470;-77
2020/12/18 01:32:28;;;;;;;32.22;19.08;;;;;;;2.01;100.00;96879.06;1031971;28;20259;-77
2020/12/18 01:32:59;;;;;;;26.52;18.40;;;;;;;2.31;100.00;96927.78;1035892;28;20490;-77
2020/12/18 01:33:30;;;;;;;21.80;17.15;;;;;;;2.35;100.00;96921.44;1024121;29;20100;-77
2020/12/18 01:34:01;;;;;;;25.10;18.17;;;;;;;2.31;100.00;96921.72;1035940;28;20403;-77
2020/12/18 01:34:32;;;;;;;24.92;17.80;;;;;;;2.28;100.00;96922.75;1031909;28;20033;-77
2020/12/18 01:35:03;;;;;;;25.48;17.60;;;;;;;2.33;100.00;96925.91;1019782;28;20031;-76
2020/12/18 01:35:34;;;;;;;26.70;18.38;;;;;;;2.19;100.00;96902.38;1027781;28;20073;-76
2020/12/18 01:36:05;;;;;;;27.63;19.38;;;;;;;2.29;100.00;96927.06;1032059;28;20029;-78
2020/12/18 01:36:36;;;;;;;25.67;18.52;;;;;;;2.26;100.00;96928.13;1024085;29;20030;-78
2020/12/18 01:37:06;;;;;;;25.42;18.55;;;;;;;2.31;100.00;96926.97;1031770;28;20042;-76
2020/12/18 01:37:37;;;;;;;27.50;18.60;;;;;;;2.35;100.00;96923.19;1032104;28;20061;-78
2020/12/18 01:38:08;;;;;;;28.00;18.85;;;;;;;2.15;100.00;96906.16;1024044;28;20019;-77
2020/12/18 01:38:39;;;;;;;28.98;19.95;;;;;;;2.27;100.00;96921.09;1028095;28;20031;-78
2020/12/18 01:39:11;;;;;;;28.70;18.95;;;;;;;2.28;100.00;96922.75;1023766;29;20031;-76
2020/12/18 01:39:41;;;;;;;28.00;18.88;;;;;;;2.35;100.00;96929.28;1027933;28;20026;-77
2020/12/18 01:40:12;;;;;;;28.33;20.40;;;;;;;2.26;100.00;96903.66;1027863;28;20054;-77
2020/12/18 01:40:43;;;;;;;28.42;19.63;;;;;;;2.39;100.00;96922.91;1032141;28;20050;-77
2020/12/18 01:41:14;;;;;;;28.88;18.98;;;;;;;2.30;100.00;96915.66;1015930;29;20115;-78
2020/12/18 01:41:45;;;;;;;35.90;20.90;;;;;;;2.29;100.00;96906.09;1032071;28;20050;-77
2020/12/18 01:42:16;;;;;;;27.77;19.80;;;;;;;2.45;100.00;96929.50;1032156;28;20030;-77
2020/12/18 01:42:48;;;;;;;30.02;20.02;;;;;;;2.44;100.00;96920.81;1031826;28;20498;-76
2020/12/18 01:43:19;;;;;;;27.55;18.65;;;;;;;2.45;100.00;96932.13;1027836;28;20387;-78
2020/12/18 01:43:50;;;;;;;28.38;19.65;;;;;;;2.41;100.00;96934.13;1032017;28;20058;-77
2020/12/18 01:44:21;;;;;;;29.42;20.00;;;;;;;2.36;100.00;96909.97;1035992;28;20032;-77
2020/12/18 01:44:52;;;;;;;27.48;19.65;;;;;;;2.49;100.00;96930.16;1027844;28;20083;-76
2020/12/18 01:45:23;;;;;;;30.23;20.08;;;;;;;2.43;100.00;96915.66;1035893;28;20025;-77
2020/12/18 01:45:54;;;;;;;29.30;19.92;;;;;;;2.43;100.00;96916.50;1035631;28;20084;-77
2020/12/18 01:46:26;;;;;;;27.65;19.55;;;;;;;2.20;100.00;96885.75;1031867;28;20390;-76
2020/12/18 01:46:57;;;;;;;29.40;20.50;;;;;;;2.44;100.00;96935.72;1031762;28;20030;-76
2020/12/18 01:47:29;;;;;;;29.17;19.17;;;;;;;2.48;100.00;96929.31;1027876;28;20031;-77
2020/12/18 01:48:00;;;;;;;28.92;20.48;;;;;;;2.44;100.00;96928.69;1031877;28;20062;-77
2020/12/18 01:48:31;;;;;;;28.33;19.35;;;;;;;2.48;100.00;96929.31;1031861;28;20511;-76
2020/12/18 01:49:01;;;;;;;28.88;19.80;;;;;;;2.44;100.00;96936.53;1031826;28;20109;-76
2020/12/18 01:49:32;;;;;;;29.23;20.58;;;;;;;2.49;100.00;96930.16;1019911;29;20019;-77
2020/12/18 01:50:03;;;;;;;29.30;20.38;;;;;;;2.54;100.00;96930.69;1020211;29;20115;-78
2020/12/18 01:50:34;;;;;;;26.85;18.88;;;;;;;2.31;100.00;96888.47;1036259;28;20026;-78
2020/12/18 01:51:07;;;;;;;29.23;19.48;;;;;;;2.51;100.00;96918.63;1031875;28;20578;-76
2020/12/18 01:51:37;;;;;;;27.52;19.63;;;;;;;2.46;100.00;96920.72;1023855;28;20027;-77
2020/12/18 01:52:08;;;;;;;29.90;20.80;;;;;;;2.36;100.00;96917.84;1024049;29;20027;-77
2020/12/18 01:52:39;;;;;;;33.38;20.05;;;;;;;2.42;100.00;96932.31;1023840;29;20027;-77
2020/12/18 01:53:10;;;;;;;27.17;18.90;;;;;;;2.39;100.00;96936.00;1027691;28;20035;-78
2020/12/18 01:53:41;;;;;;;30.27;20.25;;;;;;;2.30;100.00;96920.88;1027881;28;20031;-77
2020/12/18 01:54:12;;;;;;;26.20;17.83;;;;;;;2.42;100.00;96934.94;1027904;28;20526;-77
2020/12/18 01:54:42;;;;;;;32.60;19.30;;;;;;;2.46;100.00;96933.81;1020053;29;20036;-77
2020/12/18 01:55:13;;;;;;;30.15;19.52;;;;;;;2.44;100.00;96928.69;1023842;28;20039;-76
2020/12/18 01:55:44;;;;;;;28.35;19.38;;;;;;;2.43;100.00;96939.25;1032202;28;20018;-77
2020/12/18 01:56:15;;;;;;;29.98;19.83;;;;;;;2.44;100.00;96933.91;1024188;28;20023;-78
2020/12/18 01:56:46;;;;;;;30.42;20.02;;;;;;;2.38;100.00;96936.94;1031968;28;20033;-77
2020/12/18 01:57:17;;;;;;;28.38;20.08;;;;;;;2.42;100.00;96935.81;1020011;29;20459;-77
2020/12/18 01:57:47;;;;;;;30.83;19.38;;;;;;;2.48;100.00;96939.81;1032033;28;20085;-77
2020/12/18 01:58:18;;;;;;;30.30;20.38;;;;;;;2.51;100.00;96928.25;1016094;29;20139;-78
2020/12/18 01:58:49;;;;;;;30.60;21.08;;;;;;;2.45;100.00;96930.34;1027995;28;20033;-76
2020/12/18 01:59:20;;;;;;;32.33;21.45;;;;;;;2.50;100.00;96939.69;1019873;28;20048;-76
2020/12/18 01:59:52;;;;;;;29.38;20.20;;;;;;;2.53;100.00;96936.88;1031836;28;20057;-77
2020/12/18 02:00:22;;;;;;;29.67;20.27;;;;;;;2.56;100.00;96936.66;1020084;29;20075;-77
2020/12/18 02:00:53;;;;;;;30.80;20.88;;;;;;;2.50;100.00;96937.91;1027705;28;20098;-76
2020/12/18 02:01:24;;;;;;;27.90;19.70;;;;;;;2.48;100.00;96941.59;1023932;28;20020;-78
2020/12/18 02:01:55;;;;;;;28.65;20.02;;;;;;;2.30;100.00;96920.88;1031830;28;20022;-77
2020/12/18 02:02:26;;;;;;;25.55;19.38;;;;;;;2.34;100.00;96938.09;1016022;29;20035;-78
2020/12/18 02:02:57;;;;;;;27.80;18.67;;;;;;;2.35;100.00;96947.63;1031859;28;20030;-76
2020/12/18 02:03:28;;;;;;;30.92;19.98;;;;;;;2.37;100.00;96932.66;1031922;28;20033;-77
2020/12/18 02:03:59;;;;;;;28.25;20.33;;;;;;;2.13;100.00;96894.94;1036106;28;20077;-78
2020/12/18 02:04:30;;;;;;;27.30;19.45;;;;;;;2.43;100.00;96939.25;1023870;28;20027;-77
2020/12/18 02:05:01;;;;;;;26.85;18.65;;;;;;;2.43;100.00;96941.88;1023809;28;20023;-77
2020/12/18 02:05:32;;;;;;;29.92;19.75;;;;;;;2.36;100.00;96936.19;1035929;28;20018;-78
2020/12/18 02:06:05;;;;;;;28.63;18.90;;;;;;;2.41;100.00;96935.91;1027872;28;20054;-77
2020/12/18 02:06:37;;;;;;;28.38;19.13;;;;;;;2.40;100.00;96940.31;1031925;28;20394;-77
2020/12/18 02:07:08;;;;;;;29.05;18.95;;;;;;;2.38;100.00;96933.47;1023893;29;20031;-76
2020/12/18 02:07:38;;;;;;;31.00;20.60;;;;;;;2.31;100.00;96924.34;1023991;29;20061;-78
2020/12/18 02:08:09;;;;;;;27.40;19.27;;;;;;;2.45;100.00;96940.81;1031844;28;20053;-77
2020/12/18 02:08:41;;;;;;;27.23;19.35;;;;;;;2.42;100.00;96919.22;1019925;29;20106;-77
2020/12/18 02:09:12;;;;;;;31.83;20.42;;;;;;;2.51;100.00;96933.50;1027626;28;20027;-76
2020/12/18 02:09:43;;;;;;;27.70;19.50;;;;;;;2.49;100.00;96910.03;1027878;28;20031;-77
2020/12/18 02:10:14;;;;;;;27.77;18.98;;;;;;;2.61;100.00;96938.06;1031768;28;20022;-77
2020/12/18 02:10:45;;;;;;;27.58;20.35;;;;;;;2.32;100.00;96895.41;1023824;28;20078;-76
2020/12/18 02:11:20;;;;;;;28.75;19.77;;;;;;;2.62;100.00;96938.88;1023941;29;20029;-77
2020/12/18 02:11:52;;;;;;;29.63;20.05;;;;;;;2.64;100.00;96931.75;1035687;28;20026;-76
2020/12/18 02:12:23;;;;;;;28.50;19.00;;;;;;;2.45;100.00;96914.59;1020207;28;20067;-77
2020/12/18 02:12:54;;;;;;;28.05;19.67;;;;;;;2.44;100.00;96923.44;1036036;28;20445;-77
2020/12/18 02:13:25;;;;;;;28.10;19.13;;;;;;;2.52;100.00;96924.72;1020070;29;20064;-77
2020/12/18 02:13:57;;;;;;;27.80;20.15;;;;;;;2.54;100.00;96944.63;1028096;28;20070;-78
2020/12/18 02:14:28;;;;;;;27.33;18.65;;;;;;;2.61;100.00;96934.56;1024049;28;20064;-77
2020/12/18 02:14:59;;;;;;;29.35;18.60;;;;;;;2.60;100.00;96938.16;1036201;28;20126;-77
2020/12/18 02:15:30;;;;;;;28.60;19.35;;;;;;;2.45;100.00;96932.97;1024172;29;20424;-77
2020/12/18 02:16:01;;;;;;;27.98;19.67;;;;;;;2.43;100.00;96936.63;1028017;28;20031;-77
2020/12/18 02:16:32;;;;;;;29.13;20.35;;;;;;;2.47;100.00;96927.63;1040298;28;20021;-78
2020/12/18 02:17:03;;;;;;;28.73;19.52;;;;;;;2.49;100.00;96943.25;1031845;28;20080;-76
2020/12/18 02:17:34;;;;;;;26.45;19.15;;;;;;;2.48;100.00;96941.59;1020013;28;20163;-77
2020/12/18 02:18:04;;;;;;;26.45;19.75;;;;;;;2.33;100.00;96920.66;1023975;28;20458;-77
2020/12/18 02:18:35;;;;;;;30.67;19.65;;;;;;;2.42;100.00;96941.06;1031776;28;20034;-77
2020/12/18 02:19:08;;;;;;;26.70;18.75;;;;;;;2.34;100.00;96927.59;1023891;28;20031;-76
2020/12/18 02:19:39;;;;;;;25.83;18.38;;;;;;;2.37;100.00;96937.88;1031840;28;20113;-77
2020/12/18 02:20:10;;;;;;;29.95;20.05;;;;;;;2.29;100.00;96923.59;1027827;28;20057;-77
2020/12/18 02:20:41;;;;;;;27.75;19.27;;;;;;;2.37;100.00;96937.88;1031843;28;20045;-77
2020/12/18 02:21:12;;;;;;;27.42;18.70;;;;;;;2.43;100.00;96936.63;1027566;28;20098;-77
2020/12/18 02:21:42;;;;;;;29.10;19.75;;;;;;;2.24;100.00;96910.78;1032015;28;20057;-77
2020/12/18 02:22:15;;;;;;;28.27;19.40;;;;;;;2.31;100.00;96938.28;1031895;28;20121;-78
2020/12/18 02:22:47;;;;;;;27.85;20.48;;;;;;;2.18;100.00;96921.69;1031975;28;20065;-76
2020/12/18 02:23:18;;;;;;;25.10;18.63;;;;;;;2.31;100.00;96938.28;1023870;28;20027;-76